Time;durP1;ratioP1;P1;durP2;ratioP2;P2;SDS_P1;SDS_P2;PMS_P1;PMS_P2;Temp;Humidity;BMP_temperature;BMP_pressure;BME280_temperature;BME280_humidity;BME280_pressure;Samples;Min_cycle;Max_cycle;Signal;HPM_P1;HPM_P2
2021/04/26 00:02:42;;;;;;;3.07;2.73;;;11.30;19.10;;;;;;10446927;28;20229;-72
2021/04/26 00:07:44;;;;;;;4.27;3.10;;;11.30;18.90;;;;;;10442879;28;20663;-72
2021/04/26 00:12:48;;;;;;;5.17;2.93;;;11.20;19.00;;;;;;10447795;28;20328;-72
2021/04/26 00:18:10;;;;;;;3.97;2.80;;;11.20;19.40;;;;;;10445666;28;20224;-72
2021/04/26 00:23:12;;;;;;;2.67;2.47;;;11.20;19.30;;;;;;10445495;28;20605;-72
2021/04/26 00:28:15;;;;;;;4.20;2.73;;;11.20;19.40;;;;;;10440507;28;20304;-72
2021/04/26 00:33:17;;;;;;;3.93;3.00;;;11.10;19.30;;;;;;10448242;28;20323;-72
2021/04/26 00:38:20;;;;;;;3.17;2.87;;;11.10;19.30;;;;;;10445948;28;20229;-72
2021/04/26 00:43:23;;;;;;;3.20;2.70;;;11.10;19.30;;;;;;10423962;28;639342;-72
2021/04/26 00:48:26;;;;;;;2.97;2.70;;;11.00;19.20;;;;;;10441824;28;20244;-72
2021/04/26 00:53:28;;;;;;;2.83;2.57;;;10.90;19.20;;;;;;10444087;28;20305;-72
2021/04/26 00:58:31;;;;;;;4.47;2.87;;;10.90;19.20;;;;;;10447484;28;20311;-72
2021/04/26 01:03:33;;;;;;;3.60;3.00;;;10.80;19.10;;;;;;10444192;28;20645;-72
2021/04/26 01:08:36;;;;;;;3.63;2.63;;;10.80;19.10;;;;;;10448711;28;20608;-72
2021/04/26 01:13:45;;;;;;;2.93;2.63;;;10.70;19.00;;;;;;10442697;28;20315;-72
2021/04/26 01:18:54;;;;;;;3.00;2.70;;;10.60;19.60;;;;;;10446819;28;20375;-72
2021/04/26 01:24:19;;;;;;;3.67;2.77;;;10.50;19.40;;;;;;10441413;28;20274;-72
2021/04/26 01:29:36;;;;;;;3.63;3.03;;;10.40;19.80;;;;;;10447505;28;20592;-73
2021/04/26 01:34:40;;;;;;;3.10;2.60;;;10.30;19.80;;;;;;10447146;28;20223;-72
2021/04/26 01:39:44;;;;;;;4.80;2.90;;;10.30;19.50;;;;;;10445578;28;20637;-72
2021/04/26 01:44:46;;;;;;;4.10;2.90;;;10.20;19.40;;;;;;10444716;28;20249;-72
2021/04/26 01:49:50;;;;;;;4.83;3.13;;;10.00;19.80;;;;;;10440731;28;20412;-72
2021/04/26 01:54:53;;;;;;;4.13;2.73;;;10.00;19.50;;;;;;10441583;28;20239;-72
2021/04/26 01:59:57;;;;;;;5.07;3.17;;;9.90;20.20;;;;;;10444107;28;20308;-72
2021/04/26 02:05:01;;;;;;;3.63;3.07;;;9.80;20.30;;;;;;10441022;28;20282;-72
2021/04/26 02:10:04;;;;;;;4.10;2.90;;;9.70;20.60;;;;;;10444573;28;20308;-72
2021/04/26 02:15:11;;;;;;;3.37;2.87;;;9.60;20.50;;;;;;10446601;28;20719;-72
2021/04/26 02:20:16;;;;;;;3.53;3.20;;;9.60;20.90;;;;;;10440229;28;20279;-72
2021/04/26 02:25:20;;;;;;;4.33;3.00;;;9.50;20.90;;;;;;10445020;28;20572;-72
2021/04/26 02:30:23;;;;;;;3.20;2.97;;;9.40;20.60;;;;;;10436963;28;20309;-72
2021/04/26 02:35:33;;;;;;;3.50;3.07;;;9.40;20.70;;;;;;10443607;28;20638;-72
2021/04/26 02:40:40;;;;;;;3.97;2.93;;;9.30;21.20;;;;;;10438836;28;20411;-72
2021/04/26 02:45:48;;;;;;;6.20;3.00;;;9.20;21.00;;;;;;10441077;28;20304;-72
2021/04/26 02:50:54;;;;;;;2.73;2.53;;;9.20;21.90;;;;;;10442029;28;20675;-72
2021/04/26 02:55:59;;;;;;;4.17;2.60;;;9.10;21.20;;;;;;10444294;28;20247;-72
2021/04/26 03:01:04;;;;;;;4.67;2.87;;;9.10;21.30;;;;;;10445183;28;20888;-72
2021/04/26 03:06:09;;;;;;;4.80;2.63;;;9.10;21.30;;;;;;10437451;28;20253;-72
2021/04/26 03:11:13;;;;;;;4.00;2.93;;;9.00;21.20;;;;;;10441702;28;20244;-72
2021/04/26 03:16:16;;;;;;;3.57;3.10;;;9.00;21.30;;;;;;10444801;28;20319;-72
2021/04/26 03:21:20;;;;;;;4.43;3.43;;;9.00;21.30;;;;;;10443503;28;20324;-72
2021/04/26 03:26:23;;;;;;;3.67;3.23;;;9.00;21.40;;;;;;10443531;28;20325;-72
2021/04/26 03:31:26;;;;;;;3.87;2.70;;;9.00;21.40;;;;;;10441557;28;20336;-72
2021/04/26 03:36:30;;;;;;;4.00;2.77;;;8.90;21.40;;;;;;10442795;28;20271;-72
2021/04/26 03:41:33;;;;;;;3.20;2.67;;;8.90;21.60;;;;;;10439451;28;20233;-72
2021/04/26 03:46:47;;;;;;;3.20;2.90;;;8.90;21.50;;;;;;10439544;28;20245;-72
2021/04/26 03:51:51;;;;;;;3.20;2.60;;;8.80;22.00;;;;;;10434310;28;20233;-72
2021/04/26 03:56:53;;;;;;;3.63;3.00;;;8.80;21.60;;;;;;10440244;28;20322;-72
2021/04/26 04:01:55;;;;;;;4.47;3.40;;;8.70;21.50;;;;;;10443028;28;20285;-72
2021/04/26 04:06:59;;;;;;;4.10;3.00;;;8.70;21.50;;;;;;10445333;28;20886;-72
2021/04/26 04:12:02;;;;;;;4.90;3.33;;;8.60;21.50;;;;;;10448668;28;20221;-73
2021/04/26 04:17:04;;;;;;;4.70;3.17;;;8.60;21.60;;;;;;10444821;28;20248;-73
2021/04/26 04:22:07;;;;;;;4.10;3.63;;;8.60;21.60;;;;;;10450539;28;20267;-73
2021/04/26 04:27:10;;;;;;;6.57;3.60;;;8.50;21.80;;;;;;10446523;28;20343;-72
2021/04/26 04:32:12;;;;;;;5.40;3.40;;;8.50;21.60;;;;;;10448045;28;20233;-72
2021/04/26 04:37:15;;;;;;;5.07;4.03;;;8.40;21.80;;;;;;10445257;28;20580;-73
2021/04/26 04:42:18;;;;;;;4.50;3.27;;;8.30;22.00;;;;;;10446194;28;20336;-75
2021/04/26 04:47:20;;;;;;;3.70;3.27;;;8.30;21.80;;;;;;10437823;28;20709;-75
2021/04/26 04:52:23;;;;;;;3.77;3.37;;;8.20;21.80;;;;;;10445038;28;20235;-76
2021/04/26 04:57:25;;;;;;;5.97;3.30;;;8.10;22.10;;;;;;10449037;28;20302;-75
2021/04/26 05:02:27;;;;;;;5.10;3.43;;;8.10;22.10;;;;;;10444754;28;20260;-72
2021/04/26 05:07:31;;;;;;;5.03;3.23;;;8.00;22.10;;;;;;10447851;28;20229;-75
2021/04/26 05:12:33;;;;;;;4.87;3.60;;;8.00;22.40;;;;;;10450977;28;20255;-75
2021/04/26 05:17:35;;;;;;;5.50;3.53;;;8.00;22.40;;;;;;10448976;28;20231;-75
2021/04/26 05:22:39;;;;;;;3.70;3.37;;;7.90;22.50;;;;;;10444781;28;21072;-72
2021/04/26 05:27:42;;;;;;;6.57;4.20;;;7.90;22.70;;;;;;10446271;28;20316;-72
2021/04/26 05:32:44;;;;;;;4.20;3.73;;;7.90;22.70;;;;;;10443729;28;20261;-72
2021/04/26 05:37:47;;;;;;;4.40;3.50;;;7.90;22.90;;;;;;10443708;28;20312;-73
2021/04/26 05:42:49;;;;;;;4.70;4.10;;;7.90;23.00;;;;;;10443789;28;20852;-72
2021/04/26 05:47:51;;;;;;;4.83;3.77;;;7.80;23.00;;;;;;10440599;28;20224;-72
2021/04/26 05:52:55;;;;;;;8.57;4.23;;;7.80;23.10;;;;;;10434227;28;20308;-72
2021/04/26 05:57:57;;;;;;;4.37;3.93;;;7.90;23.50;;;;;;10446246;28;20319;-75
2021/04/26 06:02:59;;;;;;;6.73;4.00;;;7.90;23.60;;;;;;10447179;28;20217;-75
2021/04/26 06:08:04;;;;;;;6.53;4.60;;;7.90;23.70;;;;;;10447733;28;20237;-73
2021/04/26 06:13:06;;;;;;;7.23;4.57;;;8.00;24.10;;;;;;10442312;28;20256;-72
2021/04/26 06:18:12;;;;;;;4.40;4.00;;;8.10;24.10;;;;;;10441500;28;20248;-72
2021/04/26 06:23:16;;;;;;;3.97;3.60;;;8.20;24.80;;;;;;10441812;28;20253;-72
2021/04/26 06:28:19;;;;;;;6.17;4.53;;;8.30;24.40;;;;;;10444395;28;20311;-72
2021/04/26 06:33:21;;;;;;;5.40;4.40;;;8.40;24.30;;;;;;10439221;28;20323;-72
2021/04/26 06:38:24;;;;;;;6.00;4.30;;;8.60;24.30;;;;;;10444218;28;20229;-72
2021/04/26 06:43:26;;;;;;;5.33;4.13;;;8.70;24.40;;;;;;10443086;28;20532;-72
2021/04/26 06:48:29;;;;;;;6.97;4.23;;;8.90;24.40;;;;;;10438919;28;20255;-73
2021/04/26 06:53:32;;;;;;;4.23;3.70;;;9.00;24.40;;;;;;10437981;28;20308;-72
2021/04/26 06:58:34;;;;;;;5.33;4.07;;;9.20;24.20;;;;;;10442252;28;20220;-72
2021/04/26 07:03:37;;;;;;;5.77;4.20;;;9.40;24.10;;;;;;10436354;28;20659;-72
2021/04/26 07:08:40;;;;;;;4.17;3.70;;;9.60;24.10;;;;;;10439213;28;20227;-72
2021/04/26 07:13:42;;;;;;;6.67;3.90;;;9.80;24.10;;;;;;10440319;28;20235;-72
2021/04/26 07:18:45;;;;;;;6.50;3.93;;;10.00;23.30;;;;;;10439037;28;20236;-72
2021/04/26 07:23:48;;;;;;;6.00;4.27;;;10.30;23.30;;;;;;10435342;28;20225;-72
2021/04/26 07:28:51;;;;;;;4.43;4.00;;;10.50;23.10;;;;;;10441075;28;20221;-72
2021/04/26 07:33:54;;;;;;;5.67;4.10;;;10.70;23.00;;;;;;10438761;28;20232;-72
2021/04/26 07:38:58;;;;;;;5.13;4.30;;;10.90;22.90;;;;;;10445895;28;20316;-71
2021/04/26 07:44:00;;;;;;;5.47;4.20;;;11.10;23.50;;;;;;10448399;28;20347;-72
2021/04/26 07:49:03;;;;;;;4.73;3.87;;;11.40;22.80;;;;;;10448035;28;20213;-74
2021/04/26 07:54:06;;;;;;;5.40;4.07;;;11.60;22.80;;;;;;10448892;28;20229;-72
2021/04/26 07:59:08;;;;;;;5.17;4.27;;;11.80;22.70;;;;;;10445963;28;20603;-72
2021/04/26 08:04:11;;;;;;;4.00;3.60;;;12.10;22.80;;;;;;10446285;28;20294;-72
2021/04/26 08:09:14;;;;;;;5.10;3.80;;;12.40;22.70;;;;;;10447754;28;20229;-72
2021/04/26 08:14:16;;;;;;;4.60;4.00;;;12.70;22.80;;;;;;10449090;28;20324;-74
2021/04/26 08:19:19;;;;;;;4.47;3.57;;;13.00;22.60;;;;;;10448921;28;20351;-73
2021/04/26 08:24:22;;;;;;;3.87;3.47;;;13.20;22.40;;;;;;10447006;28;20418;-74
2021/04/26 08:29:24;;;;;;;3.73;3.43;;;13.50;22.10;;;;;;10441701;28;20862;-74
2021/04/26 08:34:27;;;;;;;4.67;3.87;;;13.80;22.20;;;;;;10449680;28;20308;-74
2021/04/26 08:39:30;;;;;;;4.90;3.70;;;14.00;22.00;;;;;;10450575;28;20279;-74
2021/04/26 08:44:32;;;;;;;5.13;4.00;;;14.30;21.60;;;;;;10445792;28;20283;-73
2021/04/26 08:49:34;;;;;;;4.40;3.87;;;14.60;21.70;;;;;;10442646;28;20237;-71
2021/04/26 08:54:38;;;;;;;4.80;3.63;;;14.90;21.90;;;;;;10447108;28;20324;-71
2021/04/26 08:59:42;;;;;;;6.43;3.90;;;15.10;22.00;;;;;;10448712;28;20241;-70
2021/04/26 09:04:50;;;;;;;4.53;4.00;;;15.40;21.80;;;;;;10444365;28;20260;-71
2021/04/26 09:09:54;;;;;;;5.27;3.80;;;15.60;21.20;;;;;;10439399;28;20735;-70
2021/04/26 09:14:58;;;;;;;4.00;3.60;;;15.90;21.40;;;;;;10446154;28;20323;-71
2021/04/26 09:20:24;;;;;;;5.13;3.80;;;16.10;21.20;;;;;;10450153;28;20313;-73
2021/04/26 09:25:32;;;;;;;4.13;3.70;;;16.30;20.40;;;;;;10449115;28;20284;-72
2021/04/26 09:30:50;;;;;;;4.13;3.73;;;16.60;20.50;;;;;;10439311;28;20252;-72
2021/04/26 09:36:01;;;;;;;3.93;3.53;;;16.80;20.20;;;;;;10443371;28;20304;-71
2021/04/26 09:41:10;;;;;;;4.70;3.77;;;17.00;20.00;;;;;;10445848;28;20210;-72
2021/04/26 09:46:12;;;;;;;4.03;3.63;;;17.20;19.90;;;;;;10436593;28;20840;-73
2021/04/26 09:51:20;;;;;;;4.87;3.90;;;17.40;20.20;;;;;;10442087;28;20253;-73
2021/04/26 09:56:26;;;;;;;5.63;3.63;;;17.50;20.10;;;;;;10444887;28;20228;-72
2021/04/26 10:01:29;;;;;;;4.53;3.60;;;17.60;19.50;;;;;;10440665;28;20307;-73
2021/04/26 10:06:32;;;;;;;3.50;3.20;;;17.70;19.60;;;;;;10446591;28;20221;-71
2021/04/26 10:11:38;;;;;;;4.07;3.20;;;17.80;19.10;;;;;;10444000;28;20233;-73
2021/04/26 10:16:45;;;;;;;4.60;3.07;;;17.90;18.50;;;;;;10438894;28;20351;-71
2021/04/26 10:21:59;;;;;;;4.40;3.57;;;18.00;18.40;;;;;;10439406;28;20239;-71
2021/04/26 10:27:07;;;;;;;3.50;3.20;;;18.10;18.00;;;;;;10436380;28;20976;-72
2021/04/26 10:32:13;;;;;;;4.57;3.40;;;18.10;18.40;;;;;;10428911;28;20635;-71
2021/04/26 10:37:21;;;;;;;3.57;3.23;;;18.20;18.40;;;;;;10437012;28;20356;-71
2021/04/26 10:42:32;;;;;;;4.03;3.63;;;18.20;17.90;;;;;;10440246;28;20868;-74
2021/04/26 10:47:37;;;;;;;3.70;3.40;;;18.30;17.50;;;;;;10434880;28;20320;-74
2021/04/26 10:52:42;;;;;;;3.80;3.17;;;18.40;17.90;;;;;;10439262;28;20231;-74
2021/04/26 10:57:48;;;;;;;3.63;3.33;;;18.40;18.10;;;;;;10435099;28;20663;-71
2021/04/26 11:02:52;;;;;;;3.60;3.23;;;18.50;17.90;;;;;;10434296;28;20592;-74
2021/04/26 11:07:59;;;;;;;4.13;3.73;;;18.50;17.80;;;;;;10437629;28;20228;-73
2021/04/26 11:13:19;;;;;;;3.87;3.50;;;18.60;17.70;;;;;;10443961;28;20220;-73
2021/04/26 11:18:22;;;;;;;4.40;4.00;;;18.60;17.50;;;;;;10442998;28;20997;-71
2021/04/26 11:23:44;;;;;;;3.60;3.30;;;18.70;17.50;;;;;;10444539;28;20299;-71
2021/04/26 11:29:08;;;;;;;3.50;3.20;;;18.70;16.80;;;;;;10445501;28;20221;-71
2021/04/26 11:34:11;;;;;;;3.63;3.10;;;18.80;16.60;;;;;;10443913;28;20693;-71
2021/04/26 11:39:13;;;;;;;3.70;3.40;;;18.80;17.20;;;;;;10441755;28;20261;-71
2021/04/26 11:44:16;;;;;;;3.70;3.13;;;18.80;17.00;;;;;;10442657;28;20265;-71
2021/04/26 11:49:20;;;;;;;4.93;3.00;;;18.90;16.90;;;;;;10442168;28;20316;-74
2021/04/26 11:54:28;;;;;;;4.70;3.20;;;18.80;16.40;;;;;;10443287;28;20650;-71
2021/04/26 11:59:31;;;;;;;3.80;3.50;;;18.80;15.70;;;;;;10445426;28;20244;-71
2021/04/26 12:04:38;;;;;;;4.50;3.60;;;18.70;16.50;;;;;;10442815;28;20316;-71
2021/04/26 12:09:43;;;;;;;6.37;3.33;;;18.70;16.50;;;;;;10444681;28;20590;-72
2021/04/26 12:14:52;;;;;;;5.07;3.00;;;18.70;16.70;;;;;;10439765;28;20274;-74
2021/04/26 12:19:55;;;;;;;4.17;3.57;;;18.70;16.40;;;;;;10490516;23;20311;-67
2021/04/26 12:25:00;;;;;;;3.90;3.43;;;18.70;16.00;;;;;;10495913;28;20308;-69
2021/04/26 12:30:15;;;;;;;3.53;2.80;;;18.60;16.20;;;;;;10494906;28;20216;-68
2021/04/26 12:35:27;;;;;;;3.20;2.90;;;18.60;15.60;;;;;;10495429;28;20285;-68
2021/04/26 12:40:34;;;;;;;3.40;3.10;;;18.70;16.20;;;;;;10494716;28;20224;-68
2021/04/26 12:45:39;;;;;;;3.97;3.03;;;18.60;16.20;;;;;;10495337;28;20258;-68
2021/04/26 12:50:44;;;;;;;6.17;3.20;;;18.70;15.70;;;;;;10494980;28;20303;-68
2021/04/26 12:55:49;;;;;;;4.10;3.17;;;18.70;15.30;;;;;;10494681;28;20247;-69
2021/04/26 13:00:53;;;;;;;4.47;2.83;;;18.70;15.20;;;;;;10494636;28;20248;-68
2021/04/26 13:05:57;;;;;;;4.07;2.73;;;18.70;15.60;;;;;;10489798;28;20644;-71
2021/04/26 13:11:02;;;;;;;3.30;3.00;;;18.70;16.50;;;;;;10473730;28;20216;-72
2021/04/26 13:16:23;;;;;;;3.00;2.63;;;18.70;15.30;;;;;;10480405;28;20688;-73
2021/04/26 13:21:33;;;;;;;3.60;2.83;;;18.70;14.30;;;;;;10469423;28;20719;-72
2021/04/26 13:26:36;;;;;;;2.87;2.63;;;18.80;14.30;;;;;;10451684;22;20221;-68
2021/04/26 13:31:39;;;;;;;3.43;3.10;;;18.80;15.50;;;;;;10436493;28;20224;-69
2021/04/26 13:36:43;;;;;;;3.33;3.03;;;18.90;15.20;;;;;;10430590;28;20222;-69
2021/04/26 13:41:47;;;;;;;3.20;2.83;;;18.90;15.40;;;;;;10403561;28;20887;-68
2021/04/26 13:46:51;;;;;;;3.47;3.17;;;18.80;14.80;;;;;;10405550;28;20312;-68
2021/04/26 13:51:55;;;;;;;4.27;3.10;;;18.80;15.40;;;;;;10399991;28;20241;-69
2021/04/26 13:56:57;;;;;;;3.73;2.90;;;18.80;15.20;;;;;;10406114;28;20243;-69
2021/04/26 14:02:00;;;;;;;3.13;2.80;;;18.90;15.20;;;;;;10393801;28;20340;-69
2021/04/26 14:07:03;;;;;;;3.67;2.90;;;18.90;14.70;;;;;;10400967;28;20225;-68
2021/04/26 14:12:07;;;;;;;3.53;2.70;;;18.90;14.40;;;;;;10411780;28;20300;-68
2021/04/26 14:17:10;;;;;;;3.93;2.57;;;18.90;14.40;;;;;;10409822;28;20308;-68
2021/04/26 14:22:13;;;;;;;2.60;2.27;;;19.00;14.80;;;;;;10401705;28;20217;-72
2021/04/26 14:27:16;;;;;;;4.47;2.60;;;19.00;14.60;;;;;;10400341;28;20226;-72
2021/04/26 14:32:19;;;;;;;4.37;3.07;;;19.20;14.60;;;;;;10403655;28;20230;-71
2021/04/26 14:37:21;;;;;;;3.47;3.10;;;19.20;14.60;;;;;;10389674;28;20311;-72
2021/04/26 14:42:24;;;;;;;4.10;3.10;;;19.30;14.70;;;;;;10399342;28;20312;-70
2021/04/26 14:47:28;;;;;;;3.87;2.87;;;19.30;14.70;;;;;;10392295;28;20307;-71
2021/04/26 14:52:31;;;;;;;3.50;3.20;;;19.30;14.70;;;;;;10403399;28;20225;-71
2021/04/26 14:57:33;;;;;;;3.83;2.50;;;19.30;14.70;;;;;;10395243;28;20229;-71
2021/04/26 15:02:36;;;;;;;3.33;2.77;;;19.30;14.70;;;;;;10394587;28;20291;-71
2021/04/26 15:07:39;;;;;;;3.70;2.80;;;19.40;14.70;;;;;;10396394;28;20230;-71
2021/04/26 15:12:42;;;;;;;6.13;3.00;;;19.40;14.40;;;;;;10400637;28;20316;-71
2021/04/26 15:17:46;;;;;;;3.30;3.00;;;19.30;14.60;;;;;;10400104;28;20329;-72
2021/04/26 15:23:06;;;;;;;3.50;2.83;;;19.30;14.20;;;;;;10397947;28;20218;-72
2021/04/26 15:28:10;;;;;;;3.50;3.10;;;19.20;14.40;;;;;;10406032;28;20776;-72
2021/04/26 15:33:16;;;;;;;3.27;2.90;;;19.20;14.40;;;;;;10400381;28;20242;-71
2021/04/26 15:38:18;;;;;;;3.43;2.80;;;19.30;14.00;;;;;;10399711;28;20309;-72
2021/04/26 15:43:21;;;;;;;4.13;2.90;;;19.30;14.20;;;;;;10390804;28;20303;-72
2021/04/26 15:48:24;;;;;;;3.70;3.10;;;19.40;14.10;;;;;;10391035;28;20309;-71
2021/04/26 15:53:27;;;;;;;2.73;2.47;;;19.40;14.00;;;;;;10388233;28;20301;-72
2021/04/26 15:58:29;;;;;;;3.07;2.87;;;19.40;14.00;;;;;;10398629;28;20253;-73
2021/04/26 16:03:32;;;;;;;2.97;2.50;;;19.40;14.10;;;;;;10407287;28;20301;-72
2021/04/26 16:08:34;;;;;;;3.00;2.67;;;19.40;14.70;;;;;;10410142;28;20249;-72
2021/04/26 16:13:37;;;;;;;3.23;2.80;;;19.50;14.40;;;;;;10396028;28;20323;-72
2021/04/26 16:18:42;;;;;;;2.97;2.77;;;19.50;14.00;;;;;;10417421;28;20313;-72
2021/04/26 16:23:44;;;;;;;2.60;2.40;;;19.60;13.60;;;;;;10403220;28;20276;-74
2021/04/26 16:28:47;;;;;;;3.33;2.50;;;19.60;14.00;;;;;;10397262;28;20656;-73
2021/04/26 16:33:50;;;;;;;2.60;2.40;;;19.60;13.70;;;;;;10414596;28;20218;-74
2021/04/26 16:38:55;;;;;;;2.77;2.33;;;19.60;13.60;;;;;;10410616;28;20236;-74
2021/04/26 16:43:59;;;;;;;4.07;2.50;;;19.60;13.80;;;;;;10408539;28;20228;-74
2021/04/26 16:49:02;;;;;;;2.50;2.30;;;19.70;13.90;;;;;;10411558;28;20300;-74
2021/04/26 16:54:06;;;;;;;3.30;2.70;;;19.80;13.90;;;;;;10415302;28;20310;-75
2021/04/26 16:59:08;;;;;;;2.87;2.17;;;19.80;13.60;;;;;;10402850;28;20332;-75
2021/04/26 17:04:11;;;;;;;2.80;2.47;;;19.80;13.50;;;;;;10409369;28;20213;-75
2021/04/26 17:09:14;;;;;;;2.63;2.43;;;19.90;13.40;;;;;;10410297;28;20249;-75
2021/04/26 17:14:16;;;;;;;3.30;2.20;;;19.90;13.50;;;;;;10407351;28;20728;-75
2021/04/26 17:19:19;;;;;;;2.30;2.10;;;19.90;13.60;;;;;;10405043;28;20317;-75
2021/04/26 17:24:21;;;;;;;2.57;2.37;;;19.90;13.50;;;;;;10404996;28;20257;-75
2021/04/26 17:29:24;;;;;;;2.43;2.23;;;19.90;13.40;;;;;;10404797;28;20309;-75
2021/04/26 17:34:27;;;;;;;3.30;2.63;;;19.90;13.40;;;;;;10406571;28;20233;-75
2021/04/26 17:39:30;;;;;;;2.67;2.23;;;19.80;13.10;;;;;;10409775;28;20311;-75
2021/04/26 17:44:32;;;;;;;3.10;2.30;;;19.70;13.30;;;;;;10405090;28;20316;-75
2021/04/26 17:49:37;;;;;;;2.27;2.00;;;19.60;13.50;;;;;;10398659;28;20253;-75
2021/04/26 17:54:39;;;;;;;3.23;2.10;;;19.50;13.40;;;;;;10402326;28;20248;-75
2021/04/26 17:59:42;;;;;;;5.33;2.00;;;19.40;13.90;;;;;;10394342;28;20305;-75
2021/04/26 18:04:45;;;;;;;2.77;2.50;;;19.20;14.00;;;;;;10400158;28;20317;-75
2021/04/26 18:09:47;;;;;;;3.00;2.13;;;19.10;13.90;;;;;;10411425;28;20253;-75
2021/04/26 18:14:53;;;;;;;4.33;2.20;;;18.90;13.90;;;;;;10407269;28;20222;-75
2021/04/26 18:19:56;;;;;;;2.87;2.20;;;18.80;14.30;;;;;;10397109;28;20253;-75
2021/04/26 18:24:59;;;;;;;4.67;2.73;;;18.60;14.20;;;;;;10405393;28;20214;-75
2021/04/26 18:30:02;;;;;;;3.50;2.60;;;18.50;14.10;;;;;;10408211;28;20302;-75
2021/04/26 18:35:07;;;;;;;3.20;2.53;;;18.40;14.10;;;;;;10397564;28;20242;-75
2021/04/26 18:40:10;;;;;;;3.57;2.50;;;18.30;14.00;;;;;;10401441;28;20232;-75
2021/04/26 18:45:14;;;;;;;4.50;2.33;;;18.10;13.90;;;;;;10404129;28;20225;-75
2021/04/26 18:50:17;;;;;;;4.67;2.80;;;18.00;13.80;;;;;;10410807;28;20232;-75
2021/04/26 18:55:19;;;;;;;2.57;2.13;;;17.90;14.00;;;;;;10398685;28;20658;-74
2021/04/26 19:00:23;;;;;;;3.03;2.03;;;17.80;13.90;;;;;;10401661;28;20677;-75
2021/04/26 19:05:26;;;;;;;2.53;2.30;;;17.70;14.00;;;;;;10402436;28;20260;-74
2021/04/26 19:10:28;;;;;;;2.90;2.00;;;17.60;14.00;;;;;;10396035;28;20318;-74
2021/04/26 19:15:31;;;;;;;3.27;2.90;;;17.50;14.30;;;;;;10412802;28;20259;-74
2021/04/26 19:20:35;;;;;;;4.57;3.00;;;17.30;14.30;;;;;;10394678;28;20916;-74
2021/04/26 19:25:37;;;;;;;3.90;2.90;;;17.20;14.50;;;;;;10406458;28;20250;-74
2021/04/26 19:30:39;;;;;;;3.13;2.50;;;17.10;14.10;;;;;;10397193;28;20313;-74
2021/04/26 19:35:43;;;;;;;2.73;2.40;;;17.00;14.00;;;;;;10414837;28;20312;-74
2021/04/26 19:40:45;;;;;;;3.87;2.20;;;16.80;13.90;;;;;;10409457;28;20324;-74
2021/04/26 19:45:47;;;;;;;3.27;2.73;;;16.70;14.30;;;;;;10411644;28;20633;-75
2021/04/26 19:50:54;;;;;;;2.70;2.50;;;16.60;14.20;;;;;;10406804;28;20229;-74
2021/04/26 19:56:02;;;;;;;2.87;2.27;;;16.40;14.10;;;;;;10406302;28;20225;-74
2021/04/26 20:01:05;;;;;;;2.47;2.27;;;16.30;14.20;;;;;;10408262;28;20225;-74
2021/04/26 20:06:08;;;;;;;2.70;2.23;;;16.20;14.30;;;;;;10412070;28;20251;-74
2021/04/26 20:11:10;;;;;;;2.37;1.90;;;16.10;14.30;;;;;;10404637;28;20309;-74
2021/04/26 20:16:13;;;;;;;2.47;2.27;;;16.00;14.40;;;;;;10408699;28;20297;-75
2021/04/26 20:21:16;;;;;;;3.13;2.20;;;15.80;14.30;;;;;;10405660;28;20236;-74
2021/04/26 20:26:18;;;;;;;4.93;2.10;;;15.70;14.30;;;;;;10406105;28;20713;-74
2021/04/26 20:31:21;;;;;;;2.33;2.10;;;15.60;14.40;;;;;;10400524;28;20214;-74
2021/04/26 20:36:24;;;;;;;2.43;2.23;;;15.50;14.60;;;;;;10400701;28;20225;-74
2021/04/26 20:41:27;;;;;;;2.70;2.17;;;15.40;14.70;;;;;;10402565;28;20693;-74
2021/04/26 20:46:29;;;;;;;2.67;2.27;;;15.30;14.80;;;;;;10402356;28;20257;-76
2021/04/26 20:51:33;;;;;;;2.33;2.13;;;15.10;14.60;;;;;;10408918;28;20229;-77
2021/04/26 20:56:35;;;;;;;2.17;1.97;;;15.00;14.40;;;;;;10403674;28;20843;-76
2021/04/26 21:01:37;;;;;;;4.07;2.20;;;14.90;14.40;;;;;;10403046;28;20689;-76
2021/04/26 21:06:41;;;;;;;2.20;2.00;;;14.70;14.10;;;;;;10402801;28;20301;-76
2021/04/26 21:11:43;;;;;;;3.63;2.20;;;14.60;14.30;;;;;;10404233;28;20300;-76
2021/04/26 21:16:45;;;;;;;2.73;2.30;;;14.50;14.30;;;;;;10411317;28;20304;-76
2021/04/26 21:21:48;;;;;;;3.13;2.23;;;14.40;14.30;;;;;;10404527;28;20233;-76
2021/04/26 21:26:55;;;;;;;3.47;2.10;;;14.20;15.00;;;;;;10406094;28;20316;-76
2021/04/26 21:31:57;;;;;;;3.67;2.10;;;14.20;14.60;;;;;;10401366;28;20254;-75
2021/04/26 21:37:00;;;;;;;3.63;2.43;;;14.00;14.60;;;;;;10396344;28;20217;-76
2021/04/26 21:42:03;;;;;;;2.30;2.07;;;14.00;14.80;;;;;;10406286;28;20245;-76
2021/04/26 21:47:06;;;;;;;3.23;1.90;;;13.80;14.60;;;;;;10405606;28;20252;-76
2021/04/26 21:52:09;;;;;;;2.27;1.90;;;13.70;14.60;;;;;;10389029;28;20717;-76
2021/04/26 21:57:11;;;;;;;3.20;2.00;;;13.60;14.80;;;;;;10401185;28;20229;-74
2021/04/26 22:02:13;;;;;;;2.13;1.80;;;13.50;15.00;;;;;;10398547;28;20276;-74
2021/04/26 22:07:16;;;;;;;2.93;2.10;;;13.40;15.00;;;;;;10408199;28;20229;-74
2021/04/26 22:12:18;;;;;;;2.87;1.90;;;13.30;15.10;;;;;;10401134;28;20218;-74
2021/04/26 22:17:21;;;;;;;2.63;2.00;;;13.30;15.10;;;;;;10398639;28;22901;-74
2021/04/26 22:22:24;;;;;;;3.23;2.07;;;13.20;15.00;;;;;;10406224;28;20252;-74
2021/04/26 22:27:26;;;;;;;4.33;2.30;;;13.10;15.00;;;;;;10408297;28;20603;-74
2021/04/26 22:32:29;;;;;;;3.77;2.63;;;13.00;15.00;;;;;;10398024;28;20228;-74
2021/04/26 22:37:32;;;;;;;2.30;2.10;;;12.80;15.20;;;;;;10400343;28;20225;-74
2021/04/26 22:42:35;;;;;;;3.33;2.07;;;12.60;15.30;;;;;;10394935;28;20317;-74
2021/04/26 22:47:37;;;;;;;2.43;2.20;;;12.50;15.30;;;;;;10410013;28;20229;-74
2021/04/26 22:52:41;;;;;;;2.20;2.00;;;12.50;15.30;;;;;;10410855;28;20222;-74
2021/04/26 22:57:43;;;;;;;2.00;1.80;;;12.40;15.50;;;;;;10410709;28;20233;-74
2021/04/26 23:02:45;;;;;;;3.33;2.37;;;12.40;15.40;;;;;;10397172;28;20308;-74
2021/04/26 23:07:50;;;;;;;2.00;1.90;;;12.30;15.50;;;;;;10404731;28;20295;-74
2021/04/26 23:12:52;;;;;;;4.17;2.20;;;12.20;15.40;;;;;;10412589;28;20253;-74
2021/04/26 23:17:54;;;;;;;2.43;2.23;;;12.10;15.60;;;;;;10415919;28;20690;-74
2021/04/26 23:22:57;;;;;;;2.33;2.17;;;12.00;15.80;;;;;;10409065;28;20229;-74
2021/04/26 23:27:59;;;;;;;5.53;2.13;;;12.00;15.90;;;;;;10404534;28;20900;-74
2021/04/26 23:33:02;;;;;;;2.70;2.20;;;11.90;15.80;;;;;;10421809;28;20648;-74
2021/04/26 23:38:05;;;;;;;2.73;2.23;;;11.80;15.80;;;;;;10420230;28;20468;-74
2021/04/26 23:43:07;;;;;;;5.73;2.53;;;11.80;16.00;;;;;;10412278;28;20360;-74
2021/04/26 23:48:09;;;;;;;2.10;1.83;;;11.70;15.90;;;;;;10412060;28;20246;-74
2021/04/26 23:53:12;;;;;;;2.30;2.10;;;11.70;16.00;;;;;;10412398;28;20309;-74
2021/04/26 23:58:14;;;;;;;2.50;2.30;;;11.60;16.10;;;;;;10408603;28;20309;-74
